M I D A S
Marine Information and Data Acquisition System
Tripno 968 of the Zeeleeuw from 2005-10-06 06:43:35 to 2005-10-06 14:53:27
Back to CruiseResearch ActivitiesStationsMapUnderway DataData graphs

EquipmentUnitsComment
TimeDGPSUTC
LatitudeDGPSDM.mWGS84
LongitudeDGPSDM.mWGS84
HeadingGyrodeg 
SOGDGPSknotsSpeed over ground
COGDGPSdegCourse over ground
DepthEcho soundermeters200 kHz
Missing or incorrect values are displayed as -999
Navigation data collected by the RV Zeeleeuw from 2005-10-06 06:26:14 to 2005-10-06 14:53:04
                                                                                    Next 1000 lines
Time Latitude Longitude Heading SOG COG Depth
2005-10-06 06:26:24 51°13.6 2°56.102 107 0.2 210 5.8
2005-10-06 06:26:29 51°13.6 2°56.102 105.6 0.2 203 5.8
2005-10-06 06:26:34 51°13.6 2°56.101 104.2 0.1 282 5.8
2005-10-06 06:26:39 51°13.6 2°56.101 103.1 0.1 289 5.8
2005-10-06 06:26:44 51°13.6 2°56.1 102.3 0.4 268 5.8
2005-10-06 06:26:48 51°13.6 2°56.098 101.9 0.7 284 5.8
2005-10-06 06:26:54 51°13.601 2°56.095 101.7 1.2 274 5.9
2005-10-06 06:26:59 51°13.601 2°56.09 101.7 1.4 276 6.1
2005-10-06 06:27:04 51°13.602 2°56.085 101.8 2.3 279 6.4
2005-10-06 06:27:09 51°13.602 2°56.079 103.1 2.5 281 -999
2005-10-06 06:27:14 51°13.603 2°56.073 105 2.8 281 -999
2005-10-06 06:27:20 51°13.605 2°56.066 106.9 2.9 286 -999
2005-10-06 06:27:24 51°13.605 2°56.061 108.1 2.8 285 -999
2005-10-06 06:27:30 51°13.607 2°56.055 108.8 2.5 284 -999
2005-10-06 06:27:35 51°13.607 2°56.052 109.3 1.9 289 -999
2005-10-06 06:27:40 51°13.607 2°56.051 110.5 0.8 290 -999
2005-10-06 06:27:44 51°13.607 2°56.051 112.7 0.2 46 -999
2005-10-06 06:27:49 51°13.606 2°56.054 116.5 1.2 114 -999
2005-10-06 06:27:54 51°13.605 2°56.057 121.3 1.6 114 -999
2005-10-06 06:28:00 51°13.603 2°56.061 126 1.8 124 -999
2005-10-06 06:28:04 51°13.602 2°56.064 129.9 1.9 123 -999
2005-10-06 06:28:10 51°13.599 2°56.068 133.5 2.1 131 -999
2005-10-06 06:28:14 51°13.598 2°56.071 137.2 2.2 131 -999
2005-10-06 06:28:20 51°13.595 2°56.076 141.1 2.2 137 -999
2005-10-06 06:28:24 51°13.593 2°56.079 144.1 2.3 138 -999
2005-10-06 06:28:29 51°13.591 2°56.082 146.6 2.3 143 8.9
2005-10-06 06:28:34 51°13.589 2°56.085 148.9 2.3 142 8.9
2005-10-06 06:28:39 51°13.585 2°56.087 150.6 2.4 145 8.8
2005-10-06 06:28:44 51°13.582 2°56.09 151.5 2.4 146 8.8
2005-10-06 06:28:49 51°13.579 2°56.092 152.3 2.5 147 8.9
2005-10-06 06:28:54 51°13.576 2°56.094 152.5 2.4 147 9
2005-10-06 06:28:59 51°13.573 2°56.097 152.3 2.5 145 9.6
2005-10-06 06:29:04 51°13.57 2°56.1 150.2 2.7 147 9.7
2005-10-06 06:29:09 51°13.567 2°56.104 146 2.7 138 9.5
2005-10-06 06:29:14 51°13.564 2°56.108 142.3 2.8 139 9
2005-10-06 06:29:19 51°13.561 2°56.113 140.3 2.8 139 9.1
2005-10-06 06:29:24 51°13.558 2°56.118 138.2 3 136 9.1
2005-10-06 06:29:29 51°13.555 2°56.123 137.2 3 134 9.2
2005-10-06 06:29:34 51°13.552 2°56.127 136.1 3.1 133 9.5
2005-10-06 06:29:39 51°13.549 2°56.132 135.5 3.1 134 9.1
2005-10-06 06:29:44 51°13.546 2°56.137 134.9 3.2 130 9.3
2005-10-06 06:29:49 51°13.543 2°56.143 134 3.2 130 9.4
2005-10-06 06:29:54 51°13.541 2°56.149 131.4 3.1 125 9.3
2005-10-06 06:29:59 51°13.539 2°56.155 127.7 3.2 122 9.3
2005-10-06 06:30:04 51°13.537 2°56.162 122.3 3.4 113 9.2
2005-10-06 06:30:08 51°13.536 2°56.168 115.9 3.5 109 9.4
2005-10-06 06:30:14 51°13.535 2°56.177 109.3 3.5 103 9.3
2005-10-06 06:30:19 51°13.535 2°56.185 102.8 3.6 95 9.4
2005-10-06 06:30:24 51°13.535 2°56.192 96.4 3.4 89 9.5
2005-10-06 06:30:28 51°13.535 2°56.198 91.2 3.3 85 9.3
2005-10-06 06:30:34 51°13.536 2°56.205 88.3 3.1 85 9.4
2005-10-06 06:30:39 51°13.536 2°56.21 86.7 2.4 82 9.2
2005-10-06 06:30:44 51°13.537 2°56.214 83.7 1.9 77 9.2
2005-10-06 06:30:49 51°13.537 2°56.216 79.4 1.6 73 9.2
2005-10-06 06:30:54 51°13.537 2°56.218 75.2 1 73 9.2
2005-10-06 06:30:59 51°13.538 2°56.219 71.5 0.9 68 9
2005-10-06 06:31:04 51°13.538 2°56.22 68.3 0.3 82 9.1
2005-10-06 06:31:08 51°13.538 2°56.22 66.7 0.2 59 8.9
2005-10-06 06:31:14 51°13.538 2°56.222 65.8 0.4 73 8.8
2005-10-06 06:31:19 51°13.539 2°56.223 64.1 0.7 57 8.8
2005-10-06 06:31:24 51°13.54 2°56.225 61.3 1.1 51 8.7
2005-10-06 06:31:29 51°13.541 2°56.228 56.7 1.3 46 8.6
2005-10-06 06:31:34 51°13.543 2°56.23 52.9 1.6 42 8.7
2005-10-06 06:31:39 51°13.545 2°56.232 47.1 1.6 40 8.6
2005-10-06 06:31:44 51°13.547 2°56.234 40.7 1.9 34 8.7
2005-10-06 06:31:48 51°13.549 2°56.235 33 1.7 23 8.8
2005-10-06 06:31:54 51°13.551 2°56.236 28.5 1.7 22 8.8
2005-10-06 06:31:59 51°13.551 2°56.237 25.5 0.9 19 8.8
2005-10-06 06:32:04 51°13.552 2°56.237 21.3 0.4 18 8.7
2005-10-06 06:32:08 51°13.552 2°56.237 17.1 0.2 41 8.7
2005-10-06 06:32:14 51°13.551 2°56.237 14.8 0.1 181 8.8
2005-10-06 06:32:19 51°13.55 2°56.237 13.4 0.8 189 8.7
2005-10-06 06:32:24 51°13.548 2°56.237 12.3 1.1 189 8.7
2005-10-06 06:32:28 51°13.546 2°56.236 11.5 1.3 189 -999
2005-10-06 06:32:34 51°13.544 2°56.235 10.5 1.4 188 -999
2005-10-06 06:32:40 51°13.541 2°56.235 9.3 1.6 188 -999
2005-10-06 06:32:44 51°13.539 2°56.234 8 1.8 186 -999
2005-10-06 06:32:50 51°13.535 2°56.234 6.8 2 184 -999
2005-10-06 06:32:54 51°13.533 2°56.234 5.3 1.9 183 -999
2005-10-06 06:32:59 51°13.531 2°56.234 4.6 1.8 181 -999
2005-10-06 06:33:04 51°13.528 2°56.233 4.1 1.8 182 -999
2005-10-06 06:33:10 51°13.526 2°56.233 4 1.2 182 -999
2005-10-06 06:33:14 51°13.526 2°56.233 2.1 0.5 174 -999
2005-10-06 06:33:19 51°13.526 2°56.233 358.8 0.2 280 9.4
2005-10-06 06:33:24 51°13.527 2°56.233 355.3 0.4 333 9.4
2005-10-06 06:33:29 51°13.528 2°56.232 351.2 0.8 332 -999
2005-10-06 06:33:34 51°13.53 2°56.231 346.4 1.1 338 -999
2005-10-06 06:33:39 51°13.532 2°56.229 340 1.5 329 -999
2005-10-06 06:33:44 51°13.534 2°56.227 334.6 1.7 328 -999
2005-10-06 06:33:50 51°13.536 2°56.223 329.3 2 323 4.9
2005-10-06 06:33:54 51°13.538 2°56.221 323.7 2.2 317 -999
2005-10-06 06:33:59 51°13.54 2°56.217 317.9 2.3 315 8.7
2005-10-06 06:34:04 51°13.542 2°56.212 313 2.6 308 8.7
2005-10-06 06:34:08 51°13.544 2°56.207 307.1 2.9 302 8.5
2005-10-06 06:34:14 51°13.546 2°56.201 302.8 2.9 302 8.7
2005-10-06 06:34:19 51°13.548 2°56.195 300.6 2.9 297 9
2005-10-06 06:34:24 51°13.549 2°56.189 299 2.9 295 9
2005-10-06 06:34:28 51°13.551 2°56.184 298.3 2.9 296 8.9
2005-10-06 06:34:34 51°13.553 2°56.177 297.5 2.9 293 8.4
2005-10-06 06:34:39 51°13.554 2°56.171 296.5 2.9 293 8.5
2005-10-06 06:34:44 51°13.555 2°56.165 295.6 2.9 291 8.8
2005-10-06 06:34:49 51°13.557 2°56.159 294.7 2.9 291 9
2005-10-06 06:34:54 51°13.558 2°56.153 294 2.9 289 9
2005-10-06 06:34:59 51°13.559 2°56.147 293.2 2.9 289 8.7
2005-10-06 06:35:04 51°13.56 2°56.141 292.4 2.9 288 8.6
2005-10-06 06:35:09 51°13.562 2°56.135 291.6 2.9 287 8.8
2005-10-06 06:35:14 51°13.563 2°56.129 290.9 2.8 286 8.9
2005-10-06 06:35:19 51°13.564 2°56.123 290.2 2.7 285 9
2005-10-06 06:35:24 51°13.565 2°56.118 289.4 2.7 285 9
2005-10-06 06:35:29 51°13.566 2°56.112 288.6 2.6 285 9
2005-10-06 06:35:34 51°13.566 2°56.108 287.7 2.1 286 9
2005-10-06 06:35:39 51°13.567 2°56.105 287.1 1.6 281 9
2005-10-06 06:35:44 51°13.568 2°56.103 288.2 1 292 9
2005-10-06 06:35:48 51°13.568 2°56.102 289.8 0.6 278 9
2005-10-06 06:35:54 51°13.568 2°56.102 291 0.4 276 9.1
2005-10-06 06:35:59 51°13.568 2°56.1 292 0.5 271 9.3
2005-10-06 06:36:04 51°13.568 2°56.099 292.7 0.6 294 9.3
2005-10-06 06:36:08 51°13.568 2°56.098 293.3 0.6 283 9.3
2005-10-06 06:36:14 51°13.569 2°56.096 293.9 0.7 283 9.4
2005-10-06 06:36:19 51°13.569 2°56.094 294.3 0.9 287 9.5
2005-10-06 06:36:24 51°13.57 2°56.092 295 1 294 9.4
2005-10-06 06:36:29 51°13.57 2°56.09 296 1.1 290 9.4
2005-10-06 06:36:34 51°13.571 2°56.087 297.2 1.2 295 9.5
2005-10-06 06:36:39 51°13.572 2°56.085 298.5 1.3 293 9.6
2005-10-06 06:36:44 51°13.573 2°56.082 300 1.4 300 9.4
2005-10-06 06:36:48 51°13.574 2°56.079 301.7 1.5 300 9.1
2005-10-06 06:36:54 51°13.575 2°56.076 303.7 1.5 296 9.1
2005-10-06 06:36:59 51°13.576 2°56.072 305.2 1.7 302 9
2005-10-06 06:37:04 51°13.578 2°56.069 306.8 1.8 302 8.9
2005-10-06 06:37:08 51°13.579 2°56.066 308.6 1.9 305 8.9
2005-10-06 06:37:14 51°13.581 2°56.062 310.2 1.9 304 8.9
2005-10-06 06:37:19 51°13.582 2°56.058 311.3 2 306 8.8
2005-10-06 06:37:24 51°13.584 2°56.055 312 2.1 307 8.7
2005-10-06 06:37:29 51°13.586 2°56.051 312 2.2 306 8.7
2005-10-06 06:37:34 51°13.588 2°56.047 312 2.3 306 8.9
2005-10-06 06:37:39 51°13.59 2°56.043 311.5 2.3 306 8.8
2005-10-06 06:37:44 51°13.592 2°56.038 310.8 2.4 306 8.8
2005-10-06 06:37:48 51°13.593 2°56.035 310.5 2.5 307 8.9
2005-10-06 06:37:54 51°13.596 2°56.029 310.2 2.5 307 8.8
2005-10-06 06:37:59 51°13.598 2°56.025 310.3 2.5 307 8.7
2005-10-06 06:38:04 51°13.6 2°56.021 310.7 2.5 307 8.7
2005-10-06 06:38:08 51°13.601 2°56.017 311.3 2.4 308 8.7
2005-10-06 06:38:14 51°13.604 2°56.012 311.7 2.4 308 8.9
2005-10-06 06:38:19 51°13.606 2°56.008 312.2 2.3 309 8.8
2005-10-06 06:38:24 51°13.608 2°56.004 312.7 2.3 309 8.9
2005-10-06 06:38:29 51°13.61 2°56.001 313 2.3 310 8.7
2005-10-06 06:38:34 51°13.612 2°55.997 313.4 2.2 310 8.6
2005-10-06 06:38:39 51°13.614 2°55.993 313.7 2.2 311 8.6
2005-10-06 06:38:44 51°13.616 2°55.99 314 2.1 310 8.6
2005-10-06 06:38:48 51°13.616 2°55.989 314.3 1.5 311 8.5
2005-10-06 06:38:54 51°13.617 2°55.987 313.5 1.1 312 8.5
2005-10-06 06:38:59 51°13.617 2°55.988 312.1 0.1 44 8.5
2005-10-06 06:39:04 51°13.617 2°55.988 311 0.3 132 8.4
2005-10-06 06:39:09 51°13.617 2°55.989 310.2 0.4 118 8.4
2005-10-06 06:39:14 51°13.616 2°55.989 310 0.3 125 8.5
2005-10-06 06:39:19 51°13.616 2°55.99 309.9 0.3 121 8.5
2005-10-06 06:39:24 51°13.616 2°55.99 309.7 0.3 128 8.6
2005-10-06 06:39:30 51°13.616 2°55.991 309.5 0.3 141 -999
2005-10-06 06:39:34 51°13.615 2°55.991 309.2 0.2 129 -999
2005-10-06 06:39:40 51°13.615 2°55.992 308.7 0.2 124 -999
2005-10-06 06:39:44 51°13.615 2°55.992 308.4 0.2 140 -999
2005-10-06 06:39:50 51°13.615 2°55.992 307.8 0.2 143 -999
2005-10-06 06:39:54 51°13.614 2°55.993 307.3 0.2 141 -999
2005-10-06 06:39:59 51°13.614 2°55.993 306.7 0.2 142 -999
2005-10-06 06:40:04 51°13.614 2°55.993 306.2 0.2 148 4.8
2005-10-06 06:40:10 51°13.614 2°55.993 305.5 0.1 150 -999
2005-10-06 06:40:14 51°13.614 2°55.993 304.6 0.1 159 4.7
2005-10-06 06:40:19 51°13.614 2°55.994 304 0.2 174 4.8
2005-10-06 06:40:24 51°13.613 2°55.993 303.3 0.1 161 -999
2005-10-06 06:40:29 51°13.613 2°55.994 302.7 0.1 185 8.4
2005-10-06 06:40:34 51°13.613 2°55.994 302.2 0.1 167 8.5
2005-10-06 06:40:39 51°13.613 2°55.994 301.7 0.1 174 8.5
2005-10-06 06:40:44 51°13.613 2°55.994 301.4 -999 211 8.6
2005-10-06 06:40:48 51°13.613 2°55.994 301.1 -999 211 8.9
2005-10-06 06:40:54 51°13.613 2°55.994 301 0.1 3 8.5
2005-10-06 06:40:59 51°13.613 2°55.993 300.9 0.2 306 8.5
2005-10-06 06:41:04 51°13.614 2°55.993 301.1 0.3 308 8.5
2005-10-06 06:41:09 51°13.614 2°55.992 301.6 0.4 306 8.5
2005-10-06 06:41:14 51°13.614 2°55.991 302.6 0.6 305 8.5
2005-10-06 06:41:19 51°13.615 2°55.989 303.6 0.7 305 8.5
2005-10-06 06:41:24 51°13.616 2°55.988 304.8 0.8 306 8.4
2005-10-06 06:41:28 51°13.616 2°55.987 306 0.8 305 8.5
2005-10-06 06:41:34 51°13.617 2°55.985 307 0.9 305 8.6
2005-10-06 06:41:39 51°13.618 2°55.983 308.1 1 304 8.5
2005-10-06 06:41:44 51°13.619 2°55.981 308.9 1 307 4.7
2005-10-06 06:41:48 51°13.619 2°55.98 309.7 1.1 305 8.3
2005-10-06 06:41:54 51°13.62 2°55.977 310.2 1.2 305 8.9
2005-10-06 06:41:59 51°13.621 2°55.975 310.6 1.3 307 8.5
2005-10-06 06:42:04 51°13.623 2°55.972 310.6 1.4 307 8.6
2005-10-06 06:42:08 51°13.624 2°55.97 310.6 1.5 306 8.5
2005-10-06 06:42:14 51°13.625 2°55.966 310.4 1.5 305 8.5
2005-10-06 06:42:19 51°13.626 2°55.963 310 1.7 304 8.5
2005-10-06 06:42:24 51°13.628 2°55.96 309.7 1.8 304 8.4
2005-10-06 06:42:28 51°13.629 2°55.957 309.3 1.8 304 8.5
2005-10-06 06:42:34 51°13.631 2°55.953 309.1 1.9 304 8.4
2005-10-06 06:42:39 51°13.632 2°55.949 308.7 2 302 8.4
2005-10-06 06:42:44 51°13.634 2°55.945 308.5 2.1 304 8.4
2005-10-06 06:42:49 51°13.636 2°55.941 308.4 2.1 302 8.4
2005-10-06 06:42:54 51°13.638 2°55.937 308.4 2.2 305 8.3
2005-10-06 06:42:59 51°13.639 2°55.933 308.7 2.2 305 8.3
2005-10-06 06:43:04 51°13.641 2°55.929 309.2 2.3 305 8.4
2005-10-06 06:43:09 51°13.643 2°55.924 309.7 2.4 304 8.4
2005-10-06 06:43:14 51°13.645 2°55.92 310.1 2.4 305 8.3
2005-10-06 06:43:19 51°13.647 2°55.915 310.5 2.4 305 8.4
2005-10-06 06:43:24 51°13.649 2°55.911 310.5 2.5 305 8.4
2005-10-06 06:43:28 51°13.65 2°55.907 310.3 2.6 304 8.3
2005-10-06 06:43:34 51°13.653 2°55.901 309.9 2.6 305 8.4
2005-10-06 06:43:39 51°13.655 2°55.896 309.9 2.6 305 8.4
2005-10-06 06:43:44 51°13.657 2°55.892 310 2.7 306 8.4
2005-10-06 06:43:48 51°13.659 2°55.888 310.6 2.7 306 8.3
2005-10-06 06:43:54 51°13.661 2°55.882 311.3 2.7 306 8.3
2005-10-06 06:43:59 51°13.663 2°55.878 311.9 2.5 308 8.2
2005-10-06 06:44:04 51°13.665 2°55.874 312 2.5 308 8.3
2005-10-06 06:44:08 51°13.667 2°55.87 311.8 2.4 309 8.3
2005-10-06 06:44:14 51°13.67 2°55.865 311.1 2.4 308 8.3
2005-10-06 06:44:19 51°13.672 2°55.861 310.6 2.4 309 8.3
2005-10-06 06:44:24 51°13.674 2°55.857 310.2 2.4 307 8.3
2005-10-06 06:44:29 51°13.676 2°55.853 309.9 2.5 307 8.2
2005-10-06 06:44:34 51°13.678 2°55.848 309.7 2.5 307 8.1
2005-10-06 06:44:39 51°13.68 2°55.843 309.7 2.6 306 8
2005-10-06 06:44:44 51°13.683 2°55.839 310 2.6 307 8.1
2005-10-06 06:44:48 51°13.684 2°55.835 310.6 2.6 306 8.8
2005-10-06 06:44:54 51°13.687 2°55.829 310.8 2.6 307 8.8
2005-10-06 06:44:59 51°13.689 2°55.825 310.4 2.7 306 8.4
2005-10-06 06:45:04 51°13.692 2°55.82 310.1 2.8 306 8.2
2005-10-06 06:45:08 51°13.693 2°55.816 310.2 2.8 306 8.7
2005-10-06 06:45:14 51°13.696 2°55.81 311.3 2.7 307 9.2
2005-10-06 06:45:19 51°13.699 2°55.806 312.5 2.7 309 10.2
2005-10-06 06:45:24 51°13.701 2°55.802 313.5 2.6 311 10.8
2005-10-06 06:45:28 51°13.703 2°55.798 314.9 2.6 310 11.2
2005-10-06 06:45:34 51°13.706 2°55.794 315.8 2.5 313 11.9
2005-10-06 06:45:39 51°13.708 2°55.79 316.6 2.4 312 12.2
2005-10-06 06:45:44 51°13.71 2°55.787 317.2 2.4 314 12.3
2005-10-06 06:45:48 51°13.712 2°55.784 317.9 2.4 313 12
2005-10-06 06:45:54 51°13.715 2°55.779 318.1 2.4 314 12.1
2005-10-06 06:45:59 51°13.717 2°55.775 317.7 2.4 315 12.2
2005-10-06 06:46:04 51°13.72 2°55.771 316.3 2.6 313 11.8
2005-10-06 06:46:08 51°13.722 2°55.768 314.9 2.7 310 11.5
2005-10-06 06:46:14 51°13.725 2°55.763 314.1 2.7 311 11.1
2005-10-06 06:46:19 51°13.728 2°55.758 313.8 2.9 310 10.7
2005-10-06 06:46:24 51°13.731 2°55.753 313.8 3 311 10.2
2005-10-06 06:46:28 51°13.733 2°55.748 314.2 3.1 310 9.5
2005-10-06 06:46:34 51°13.736 2°55.741 314.5 3.1 311 8.7
2005-10-06 06:46:39 51°13.739 2°55.735 314.7 3.2 310 8.4
2005-10-06 06:46:44 51°13.742 2°55.73 314.7 3.3 310 8.1
2005-10-06 06:46:48 51°13.744 2°55.725 314.7 3.3 309 8.6
2005-10-06 06:46:54 51°13.748 2°55.718 314.6 3.4 311 8.8
2005-10-06 06:46:59 51°13.751 2°55.712 314.6 3.5 310 8.7
2005-10-06 06:47:04 51°13.754 2°55.706 314.6 3.5 310 8.4
2005-10-06 06:47:08 51°13.757 2°55.701 314.7 3.6 310 8.5
2005-10-06 06:47:14 51°13.761 2°55.694 315.1 3.6 311 8.8
2005-10-06 06:47:19 51°13.765 2°55.689 316.1 3.7 311 8.6
2005-10-06 06:47:24 51°13.769 2°55.683 317.1 3.9 315 5.1
2005-10-06 06:47:29 51°13.773 2°55.677 319.2 4 315 8.8
2005-10-06 06:47:34 51°13.778 2°55.671 321.5 4.1 318 4.9
2005-10-06 06:47:39 51°13.783 2°55.665 324.1 4.3 319 9.1
2005-10-06 06:47:44 51°13.788 2°55.659 326.2 4.5 323 9.2
2005-10-06 06:47:48 51°13.792 2°55.655 328.2 4.6 324 9.5
2005-10-06 06:47:54 51°13.799 2°55.648 329.3 4.7 324 9.7
2005-10-06 06:47:59 51°13.805 2°55.642 330.4 4.8 328 9.5
2005-10-06 06:48:04 51°13.811 2°55.637 332.7 4.9 331 9.5
2005-10-06 06:48:09 51°13.817 2°55.632 336.7 5 335 9.4
2005-10-06 06:48:14 51°13.824 2°55.629 342.5 5.2 339 9.3
2005-10-06 06:48:19 51°13.831 2°55.625 346 5.3 341 9.1
2005-10-06 06:48:24 51°13.838 2°55.621 346.2 5.4 340 9.2
2005-10-06 06:48:29 51°13.845 2°55.616 345.3 5.5 340 9
2005-10-06 06:48:34 51°13.853 2°55.611 344.6 5.7 339 9.2
2005-10-06 06:48:39 51°13.86 2°55.608 345.4 5.7 339 9.1
2005-10-06 06:48:44 51°13.868 2°55.603 345.8 5.7 340 9.3
2005-10-06 06:48:49 51°13.875 2°55.599 345 5.6 339 9.1
2005-10-06 06:48:54 51°13.882 2°55.595 344.6 5.5 339 9
2005-10-06 06:48:59 51°13.889 2°55.591 344.5 5.3 340 9.1
2005-10-06 06:49:04 51°13.895 2°55.587 344.7 5 340 8.9
2005-10-06 06:49:09 51°13.901 2°55.584 345 4.8 340 8.8
2005-10-06 06:49:14 51°13.906 2°55.581 345 4.1 340 8.8
2005-10-06 06:49:19 51°13.911 2°55.578 345.4 3.9 340 8.9
2005-10-06 06:49:24 51°13.914 2°55.576 347.4 2.9 342 8.9
2005-10-06 06:49:28 51°13.916 2°55.575 348.5 2.3 344 9.2
2005-10-06 06:49:34 51°13.919 2°55.573 347.8 1.8 338 9.2
2005-10-06 06:49:39 51°13.921 2°55.572 345.9 1.8 343 9.1
2005-10-06 06:49:44 51°13.923 2°55.571 345 1.7 339 9.5
2005-10-06 06:49:49 51°13.925 2°55.569 344.3 1.7 342 9.4
2005-10-06 06:49:54 51°13.927 2°55.568 344 1.7 338 9.4
2005-10-06 06:49:59 51°13.93 2°55.567 343.7 1.7 338 9
2005-10-06 06:50:04 51°13.932 2°55.565 343.6 1.8 339 8.9
2005-10-06 06:50:09 51°13.935 2°55.564 343.8 1.9 341 8.8
2005-10-06 06:50:14 51°13.938 2°55.562 344.4 2.2 339 8.8
2005-10-06 06:50:19 51°13.941 2°55.56 344.3 2.3 337 9
2005-10-06 06:50:24 51°13.944 2°55.558 343.6 2.6 337 9
2005-10-06 06:50:28 51°13.947 2°55.556 341.9 2.7 337 9
2005-10-06 06:50:34 51°13.952 2°55.553 341 3 337 9.1
2005-10-06 06:50:39 51°13.956 2°55.55 340.3 3.1 336 9
2005-10-06 06:50:44 51°13.96 2°55.547 340.2 3.3 336 9
2005-10-06 06:50:49 51°13.965 2°55.544 340.4 3.4 336 9.1
2005-10-06 06:50:54 51°13.969 2°55.541 340.7 3.5 337 9.5
2005-10-06 06:50:59 51°13.974 2°55.537 340.7 3.8 337 9.7
2005-10-06 06:51:04 51°13.979 2°55.534 340.4 3.9 337 9.2
2005-10-06 06:51:09 51°13.984 2°55.53 339.8 4 336 9.2
2005-10-06 06:51:14 51°13.99 2°55.526 339.8 4.1 336 9.6
2005-10-06 06:51:19 51°13.995 2°55.523 339.8 4.2 336 9.6
2005-10-06 06:51:24 51°14 2°55.519 340.2 4.3 336 9.6
2005-10-06 06:51:29 51°14.006 2°55.515 340.3 4.4 336 9.6
2005-10-06 06:51:34 51°14.012 2°55.511 340.1 4.6 336 9.7
2005-10-06 06:51:39 51°14.018 2°55.506 339.9 4.7 335 9.7
2005-10-06 06:51:44 51°14.024 2°55.502 339.9 5 336 9.6
2005-10-06 06:51:49 51°14.031 2°55.497 340.1 5 335 9.5
2005-10-06 06:51:54 51°14.037 2°55.492 340.2 5.2 336 9.5
2005-10-06 06:51:59 51°14.044 2°55.487 340.2 5.3 336 9.3
2005-10-06 06:52:04 51°14.051 2°55.482 340.2 5.5 335 9.3
2005-10-06 06:52:08 51°14.057 2°55.478 339.7 5.6 335 9.3
2005-10-06 06:52:14 51°14.066 2°55.472 339.7 5.8 335 9.5
2005-10-06 06:52:19 51°14.073 2°55.466 339.7 5.8 335 9.6
2005-10-06 06:52:24 51°14.081 2°55.461 340.3 6 336 9.5
2005-10-06 06:52:28 51°14.087 2°55.457 340.2 6.1 335 9.6
2005-10-06 06:52:34 51°14.096 2°55.449 339.3 6.1 334 9.5
2005-10-06 06:52:39 51°14.104 2°55.443 338.7 6.3 334 9.6
2005-10-06 06:52:44 51°14.112 2°55.436 337.4 6.3 334 9.5
2005-10-06 06:52:48 51°14.118 2°55.43 335.1 6.5 331 9.4
2005-10-06 06:52:54 51°14.128 2°55.421 334.4 6.7 330 9.4
2005-10-06 06:52:59 51°14.136 2°55.414 334.9 6.8 329 9.6
2005-10-06 06:53:04 51°14.145 2°55.406 335.6 7 331 9.6
2005-10-06 06:53:08 51°14.151 2°55.4 335.5 7.1 330 9.6
2005-10-06 06:53:14 51°14.162 2°55.389 334.2 7.2 330 9.6
2005-10-06 06:53:19 51°14.17 2°55.38 331.6 7.3 325 9.6
2005-10-06 06:53:24 51°14.179 2°55.37 330.1 7.5 325 9.6
2005-10-06 06:53:29 51°14.188 2°55.361 330 7.5 324 9.6
2005-10-06 06:53:34 51°14.197 2°55.352 330.5 7.6 326 9.6
2005-10-06 06:53:39 51°14.205 2°55.342 330.5 7.7 325 9.6
2005-10-06 06:53:44 51°14.214 2°55.332 329.8 7.8 325 9.6
2005-10-06 06:53:48 51°14.222 2°55.324 329.7 7.8 325 9.5
2005-10-06 06:53:54 51°14.232 2°55.312 330 7.9 325 9.6
2005-10-06 06:53:59 51°14.241 2°55.301 329.5 7.9 322 9.6
2005-10-06 06:54:04 51°14.249 2°55.289 326.5 7.9 319 9.6
2005-10-06 06:54:09 51°14.257 2°55.278 323.7 7.9 318 9.6
2005-10-06 06:54:14 51°14.265 2°55.265 321.1 7.9 315 9.6
2005-10-06 06:54:19 51°14.272 2°55.252 318.9 7.9 315 9.6
2005-10-06 06:54:24 51°14.28 2°55.239 317.1 8 312 9.6
2005-10-06 06:54:29 51°14.287 2°55.225 316.4 8.1 312 9.6
2005-10-06 06:54:34 51°14.295 2°55.212 315.5 8.1 311 9.6
2005-10-06 06:54:39 51°14.302 2°55.198 314.7 8.1 310 9.7
2005-10-06 06:54:44 51°14.309 2°55.184 314.4 8.1 310 9.6
2005-10-06 06:54:49 51°14.316 2°55.17 314.6 8.1 310 9.7
2005-10-06 06:54:54 51°14.322 2°55.155 314.1 8.1 308 9.6
2005-10-06 06:54:59 51°14.329 2°55.141 311.7 8.1 307 9.6
2005-10-06 06:55:04 51°14.335 2°55.126 309.4 8.2 304 9.7
2005-10-06 06:55:09 51°14.342 2°55.111 309 8.2 304 9.7
2005-10-06 06:55:14 51°14.348 2°55.096 309.9 8.2 305 9.8
2005-10-06 06:55:19 51°14.355 2°55.081 310.3 8.3 305 9.8
2005-10-06 06:55:24 51°14.361 2°55.066 309.9 8.3 304 9.8
2005-10-06 06:55:29 51°14.367 2°55.05 308.6 8.3 303 9.8
2005-10-06 06:55:34 51°14.373 2°55.035 307 8.2 301 9.8
2005-10-06 06:55:39 51°14.379 2°55.019 305.6 8.2 300 9.6
2005-10-06 06:55:44 51°14.384 2°55.003 304.8 8.2 299 9.6
2005-10-06 06:55:48 51°14.388 2°54.99 303.8 8.2 298 9.5
2005-10-06 06:55:54 51°14.394 2°54.97 303 8.2 297 9.4
2005-10-06 06:55:59 51°14.399 2°54.954 302.4 8.3 296 9.4
2005-10-06 06:56:04 51°14.404 2°54.937 301.8 8.4 294 9.4
2005-10-06 06:56:09 51°14.408 2°54.919 300.7 8.4 293 9.4
2005-10-06 06:56:14 51°14.413 2°54.901 299.7 8.6 292 9.5
2005-10-06 06:56:19 51°14.417 2°54.883 298.5 8.7 291 9.6
2005-10-06 06:56:24 51°14.421 2°54.865 297.5 8.9 289 9.6
2005-10-06 06:56:28 51°14.423 2°54.85 296.1 8.9 287 9.4
2005-10-06 06:56:34 51°14.428 2°54.827 295.8 9 289 9.4
2005-10-06 06:56:39 51°14.432 2°54.808 297.1 9.1 289 9.5
2005-10-06 06:56:44 51°14.436 2°54.788 298.6 9.4 290 9.5
2005-10-06 06:56:48 51°14.44 2°54.773 299.5 9.5 290 9.4
2005-10-06 06:56:54 51°14.446 2°54.749 300.2 9.6 290 9.4
2005-10-06 06:56:59 51°14.45 2°54.728 300.5 9.7 290 9.4
2005-10-06 06:57:04 51°14.455 2°54.707 300.9 10 291 9.4
2005-10-06 06:57:09 51°14.46 2°54.685 300.9 10.3 290 9.4
2005-10-06 06:57:14 51°14.465 2°54.663 300.4 10.5 290 9.4
2005-10-06 06:57:19 51°14.47 2°54.641 300.2 10.7 290 9.5
2005-10-06 06:57:24 51°14.475 2°54.618 301 10.9 291 9.5
2005-10-06 06:57:29 51°14.481 2°54.595 301.1 11 290 9.4
2005-10-06 06:57:34 51°14.486 2°54.572 300.3 11.1 289 9.5
2005-10-06 06:57:39 51°14.49 2°54.549 299.4 11.2 288 9.4
2005-10-06 06:57:44 51°14.496 2°54.525 299 11.3 289 9.5
2005-10-06 06:57:49 51°14.501 2°54.501 299.4 11.4 289 9.4
2005-10-06 06:57:54 51°14.506 2°54.477 299.8 11.5 290 9.3
2005-10-06 06:57:59 51°14.512 2°54.453 299.8 11.7 290 9.3
2005-10-06 06:58:04 51°14.518 2°54.428 300.3 11.7 291 9.3
2005-10-06 06:58:09 51°14.524 2°54.404 300.9 11.8 291 9.3
2005-10-06 06:58:14 51°14.529 2°54.379 300.6 11.9 290 9.2
2005-10-06 06:58:19 51°14.535 2°54.354 299.9 12 289 9.4
2005-10-06 06:58:24 51°14.54 2°54.329 299.4 12.1 289 9.3
2005-10-06 06:58:29 51°14.545 2°54.303 298.3 12.2 289 9.3
2005-10-06 06:58:34 51°14.551 2°54.277 297.5 12.3 288 9.5
2005-10-06 06:58:39 51°14.557 2°54.252 298.5 12.2 289 9.2
2005-10-06 06:58:44 51°14.563 2°54.227 299.7 12.3 290 9.2
2005-10-06 06:58:49 51°14.57 2°54.202 301.7 12.2 293 9.4
2005-10-06 06:58:54 51°14.576 2°54.177 302.8 12.2 293 9.3
2005-10-06 06:58:59 51°14.582 2°54.152 302.4 12.2 292 9.4
2005-10-06 06:59:04 51°14.588 2°54.126 300.4 12.3 290 9.5
2005-10-06 06:59:09 51°14.594 2°54.1 299 12.4 289 9.3
2005-10-06 06:59:14 51°14.599 2°54.074 299.1 12.5 290 9.5
2005-10-06 06:59:19 51°14.606 2°54.048 299.7 12.5 291 9.4
2005-10-06 06:59:24 51°14.612 2°54.022 299.7 12.6 290 9.3
2005-10-06 06:59:29 51°14.618 2°53.996 299.7 12.6 291 9.4
2005-10-06 06:59:34 51°14.624 2°53.97 300.4 12.7 291 9.5
2005-10-06 06:59:39 51°14.631 2°53.943 300.5 12.7 291 9.5
2005-10-06 06:59:44 51°14.637 2°53.917 300.4 12.7 291 9.6
2005-10-06 06:59:49 51°14.644 2°53.891 300.5 12.7 292 9.5
2005-10-06 06:59:54 51°14.651 2°53.865 301.5 12.7 293 9.5
2005-10-06 06:59:59 51°14.658 2°53.839 302.6 12.7 293 9.4
2005-10-06 07:00:04 51°14.665 2°53.813 302.8 12.7 293 9.5
2005-10-06 07:00:09 51°14.671 2°53.787 301.9 12.7 292 9.4
2005-10-06 07:00:14 51°14.677 2°53.761 300 12.7 290 9.2
2005-10-06 07:00:19 51°14.683 2°53.734 298.8 12.7 290 9
2005-10-06 07:00:24 51°14.689 2°53.708 298.1 12.8 290 9.2
2005-10-06 07:00:29 51°14.696 2°53.682 299.2 12.7 292 9
2005-10-06 07:00:34 51°14.702 2°53.655 299.8 12.8 291 8.9
2005-10-06 07:00:39 51°14.709 2°53.629 300.1 12.7 291 9.1
2005-10-06 07:00:44 51°14.714 2°53.602 299 12.8 288 9
2005-10-06 07:00:49 51°14.717 2°53.574 294.8 12.8 284 9
2005-10-06 07:00:54 51°14.719 2°53.546 289 12.8 280 9.1
2005-10-06 07:00:59 51°14.72 2°53.517 283.2 12.8 274 9.2
2005-10-06 07:01:04 51°14.719 2°53.489 279.4 12.9 270 9
2005-10-06 07:01:09 51°14.718 2°53.46 275.2 13 268 9.2
2005-10-06 07:01:14 51°14.717 2°53.431 272.5 13 266 9.1
2005-10-06 07:01:19 51°14.715 2°53.403 270.1 13.1 264 8.8
2005-10-06 07:01:23 51°14.712 2°53.38 268.5 13.1 263 8.6
2005-10-06 07:01:28 51°14.71 2°53.351 267.3 13.1 262 8.5
2005-10-06 07:01:34 51°14.707 2°53.317 267.1 13.1 262 8.5
2005-10-06 07:01:39 51°14.705 2°53.288 267 13.1 262 8.4
2005-10-06 07:01:44 51°14.702 2°53.259 267.2 13.1 262 8.4
2005-10-06 07:01:49 51°14.7 2°53.23 268 13.2 264 8.3
2005-10-06 07:01:54 51°14.698 2°53.202 268.6 13.2 265 8.3
2005-10-06 07:01:59 51°14.697 2°53.172 269.7 13.1 264 8.2
2005-10-06 07:02:04 51°14.696 2°53.144 271.2 13.2 267 8.3
2005-10-06 07:02:08 51°14.696 2°53.12 272.4 13.2 267 8.2
2005-10-06 07:02:14 51°14.695 2°53.085 273.2 13.2 268 8.2
2005-10-06 07:02:19 51°14.695 2°53.056 274 13.2 268 8.3
2005-10-06 07:02:24 51°14.694 2°53.027 274.8 13.3 269 8.3
2005-10-06 07:02:29 51°14.694 2°52.998 275 13.2 269 8.3
2005-10-06 07:02:34 51°14.694 2°52.968 275.5 13.2 270 8.4
2005-10-06 07:02:39 51°14.694 2°52.939 275.6 13.3 270 8.3
2005-10-06 07:02:44 51°14.694 2°52.91 275.2 13.3 269 8.3
2005-10-06 07:02:49 51°14.693 2°52.881 275 13.3 269 8.3
2005-10-06 07:02:54 51°14.693 2°52.851 274.7 13.3 268 8.3
2005-10-06 07:02:59 51°14.692 2°52.822 274.1 13.3 268 8.4
2005-10-06 07:03:04 51°14.69 2°52.793 272.5 13.3 265 8.4
2005-10-06 07:03:09 51°14.688 2°52.764 271 13.3 264 8.4
2005-10-06 07:03:14 51°14.685 2°52.734 269.2 13.3 263 8.4
2005-10-06 07:03:19 51°14.683 2°52.705 267.9 13.3 262 8.4
2005-10-06 07:03:24 51°14.68 2°52.677 266.4 13.3 260 8.4
2005-10-06 07:03:29 51°14.677 2°52.647 265.9 13.4 261 8.4
2005-10-06 07:03:34 51°14.674 2°52.618 265.5 13.4 260 8.4
2005-10-06 07:03:39 51°14.67 2°52.589 265.5 13.3 260 8.4
2005-10-06 07:03:44 51°14.667 2°52.561 265.1 13.3 259 8.4
2005-10-06 07:03:49 51°14.664 2°52.532 265 13.3 259 8.4
2005-10-06 07:03:54 51°14.661 2°52.503 265.2 13.3 259 8.5
2005-10-06 07:03:59 51°14.657 2°52.474 265 13.3 260 8.5
2005-10-06 07:04:04 51°14.654 2°52.445 265 13.3 260 8.5
2005-10-06 07:04:09 51°14.652 2°52.416 265.7 13.3 260 8.6
2005-10-06 07:04:14 51°14.649 2°52.386 266 13.3 261 8.5
2005-10-06 07:04:19 51°14.646 2°52.357 266.1 13.3 260 8.5
2005-10-06 07:04:24 51°14.643 2°52.328 266 13.3 261 8.5
2005-10-06 07:04:29 51°14.64 2°52.299 265.6 13.3 260 8.5
2005-10-06 07:04:34 51°14.636 2°52.271 264.9 13.3 259 8.5
2005-10-06 07:04:39 51°14.632 2°52.242 263.9 13.2 257 8.5
2005-10-06 07:04:44 51°14.627 2°52.213 262 13.3 256 8.6
2005-10-06 07:04:49 51°14.622 2°52.185 260.5 13.3 256 8.6
2005-10-06 07:04:54 51°14.617 2°52.157 259.3 13.3 254 8.6
2005-10-06 07:04:59 51°14.611 2°52.129 257.8 13.3 253 8.5
2005-10-06 07:05:04 51°14.605 2°52.101 256.2 13.3 252 8.6
2005-10-06 07:05:09 51°14.599 2°52.074 255.2 13.4 250 8.6
2005-10-06 07:05:14 51°14.593 2°52.046 254.8 13.3 251 8.5
2005-10-06 07:05:19 51°14.587 2°52.018 254.7 13.4 251 8.5
2005-10-06 07:05:23 51°14.582 2°51.995 255.1 13.4 252 8.6
2005-10-06 07:05:29 51°14.575 2°51.962 255.4 13.4 252 8.5
2005-10-06 07:05:34 51°14.57 2°51.934 255.6 13.3 252 8.5
2005-10-06 07:05:39 51°14.564 2°51.908 255.8 12.7 252 8.5
2005-10-06 07:05:44 51°14.559 2°51.882 256.3 12.2 252 8.5
2005-10-06 07:05:49 51°14.555 2°51.858 256.6 12 253 8.6
2005-10-06 07:05:54 51°14.55 2°51.834 256.9 11.4 253 8.6
2005-10-06 07:05:59 51°14.545 2°51.811 257.2 11 253 8.7
2005-10-06 07:06:04 51°14.541 2°51.789 257.2 10.6 253 8.7
2005-10-06 07:06:08 51°14.538 2°51.771 257 10.3 252 8.8
2005-10-06 07:06:14 51°14.532 2°51.747 256.7 9.8 252 8.8
2005-10-06 07:06:19 51°14.529 2°51.727 256.4 9.5 252 8.8
2005-10-06 07:06:24 51°14.525 2°51.708 256.1 9.2 252 8.7
2005-10-06 07:06:28 51°14.521 2°51.693 256 9 251 8.8
2005-10-06 07:06:34 51°14.517 2°51.671 255.6 8.8 251 8.8
2005-10-06 07:06:39 51°14.513 2°51.654 255.4 8.5 251 8.8
2005-10-06 07:06:44 51°14.509 2°51.637 255.1 8.3 251 8.7
2005-10-06 07:06:49 51°14.505 2°51.62 254.9 8.1 250 8.8
2005-10-06 07:06:54 51°14.502 2°51.603 254.9 8 251 8.7
2005-10-06 07:06:59 51°14.498 2°51.587 254.8 7.9 251 8.8
2005-10-06 07:07:04 51°14.494 2°51.571 254.9 7.8 251 8.7
2005-10-06 07:07:09 51°14.491 2°51.555 255 7.6 250 8.7
2005-10-06 07:07:14 51°14.487 2°51.54 255.1 7.5 251 8.6
2005-10-06 07:07:19 51°14.484 2°51.524 255.3 7.5 251 8.8
2005-10-06 07:07:24 51°14.481 2°51.509 255.5 7.3 251 8.7
2005-10-06 07:07:29 51°14.477 2°51.494 255.7 7.3 252 8.7
2005-10-06 07:07:34 51°14.474 2°51.479 255.8 7.1 251 8.6
2005-10-06 07:07:39 51°14.471 2°51.464 255.8 7 251 8.7
2005-10-06 07:07:43 51°14.469 2°51.453 256 6.8 251 8.7
2005-10-06 07:07:49 51°14.466 2°51.437 256.1 6.5 252 8.7
2005-10-06 07:07:54 51°14.463 2°51.424 256.1 6.3 251 8.7
2005-10-06 07:07:59 51°14.46 2°51.411 256.1 6.2 250 8.7
2005-10-06 07:08:03 51°14.458 2°51.401 255.9 6 251 8.7
2005-10-06 07:08:09 51°14.455 2°51.387 255.8 5.8 252 8.5
2005-10-06 07:08:14 51°14.452 2°51.375 255.8 5.7 251 8.6
2005-10-06 07:08:19 51°14.45 2°51.364 256 5.4 251 8.7
2005-10-06 07:08:24 51°14.447 2°51.352 256 5.3 252 8.6
2005-10-06 07:08:29 51°14.445 2°51.342 256 5.3 251 8.6
2005-10-06 07:08:34 51°14.443 2°51.331 256.2 5.1 251 8.7
2005-10-06 07:08:39 51°14.441 2°51.32 256.2 5 251 8.7
2005-10-06 07:08:44 51°14.438 2°51.31 256.3 4.9 252 8.6
2005-10-06 07:08:48 51°14.437 2°51.302 256.6 4.8 252 8.7
2005-10-06 07:08:54 51°14.434 2°51.29 256.8 4.7 252 8.7
2005-10-06 07:08:59 51°14.432 2°51.281 256.9 4.6 250 8.7
2005-10-06 07:09:04 51°14.43 2°51.271 256.8 4.6 251 8.6
2005-10-06 07:09:09 51°14.428 2°51.262 256.7 4.5 251 8.6
2005-10-06 07:09:14 51°14.426 2°51.253 256.5 4.4 251 8.7
2005-10-06 07:09:19 51°14.424 2°51.244 256.3 4.3 251 8.6
2005-10-06 07:09:24 51°14.422 2°51.235 256.3 4.3 251 8.7
2005-10-06 07:09:29 51°14.42 2°51.226 256.1 4.2 249 8.8
2005-10-06 07:09:34 51°14.418 2°51.218 256 4.2 249 8.6
2005-10-06 07:09:39 51°14.415 2°51.209 255.6 4.2 249 8.6
2005-10-06 07:09:44 51°14.413 2°51.201 255.6 4.1 250 8.7
2005-10-06 07:09:49 51°14.411 2°51.193 255.6 4 248 8.7
2005-10-06 07:09:54 51°14.409 2°51.184 255.5 4 249 8.6
2005-10-06 07:09:59 51°14.407 2°51.176 255.3 4 248 8.7
2005-10-06 07:10:04 51°14.405 2°51.168 255.2 3.9 249 8.6
2005-10-06 07:10:09 51°14.403 2°51.16 255.3 3.9 249 8.6
2005-10-06 07:10:14 51°14.401 2°51.152 255.4 3.9 249 8.6
2005-10-06 07:10:19 51°14.399 2°51.144 255.5 3.8 249 8.7
2005-10-06 07:10:24 51°14.397 2°51.137 255.4 3.8 248 8.7
2005-10-06 07:10:29 51°14.395 2°51.129 255.7 3.8 249 8.6
2005-10-06 07:10:34 51°14.393 2°51.122 255.7 3.7 247 8.7
2005-10-06 07:10:39 51°14.391 2°51.114 255.8 3.6 247 8.6
2005-10-06 07:10:44 51°14.389 2°51.107 256 3.6 249 8.6
2005-10-06 07:10:49 51°14.387 2°51.1 256.1 3.6 246 8.6
2005-10-06 07:10:54 51°14.385 2°51.092 256.1 3.6 248 8.6
2005-10-06 07:10:59 51°14.384 2°51.085 256.2 3.6 247 8.6
2005-10-06 07:11:04 51°14.382 2°51.078 256.3 3.5 248 8.7
2005-10-06 07:11:08 51°14.38 2°51.072 256.5 3.5 247 8.5
2005-10-06 07:11:14 51°14.379 2°51.063 256.9 3.5 248 8.6
2005-10-06 07:11:19 51°14.377 2°51.056 257.3 3.5 248 8.6
2005-10-06 07:11:24 51°14.375 2°51.049 257.7 3.4 249 8.6
2005-10-06 07:11:28 51°14.373 2°51.044 258.1 3.4 247 8.7
2005-10-06 07:11:34 51°14.372 2°51.036 258.5 3.3 249 8.7
2005-10-06 07:11:39 51°14.37 2°51.029 258.8 3.3 247 8.6
2005-10-06 07:11:44 51°14.368 2°51.022 259.1 3.3 249 8.6
2005-10-06 07:11:49 51°14.366 2°51.015 259.3 3.3 249 8.6
2005-10-06 07:11:54 51°14.365 2°51.009 259.2 3.2 249 8.6
2005-10-06 07:11:59 51°14.363 2°51.002 259.1 3.3 249 8.5
2005-10-06 07:12:04 51°14.361 2°50.995 259.1 3.2 249 8.6
2005-10-06 07:12:09 51°14.36 2°50.989 258.9 3.2 247 8.6
2005-10-06 07:12:14 51°14.358 2°50.982 258.6 3.2 248 8.7
2005-10-06 07:12:19 51°14.356 2°50.976 258.3 3.1 248 8.6
2005-10-06 07:12:24 51°14.355 2°50.969 258.1 3.1 248 8.6
2005-10-06 07:12:29 51°14.353 2°50.963 257.9 3.1 246 8.7
2005-10-06 07:12:34 51°14.351 2°50.957 257.6 3.1 249 8.6
2005-10-06 07:12:39 51°14.349 2°50.95 257.2 3.2 246 8.4
2005-10-06 07:12:44 51°14.348 2°50.944 256.9 3.1 249 8.5
2005-10-06 07:12:49 51°14.346 2°50.937 256.7 3.1 246 8.5
2005-10-06 07:12:54 51°14.344 2°50.931 256.5 3.1 248 8.6
2005-10-06 07:12:59 51°14.343 2°50.925 256.3 3.1 246 8.6
2005-10-06 07:13:04 51°14.341 2°50.919 256.2 3.1 248 8.5
2005-10-06 07:13:09 51°14.339 2°50.912 256.1 3.1 246 8.6
2005-10-06 07:13:14 51°14.337 2°50.906 255.9 3.1 247 8.6
2005-10-06 07:13:19 51°14.336 2°50.9 255.9 3.1 246 8.7
2005-10-06 07:13:24 51°14.334 2°50.894 255.6 3 247 8.6
2005-10-06 07:13:29 51°14.332 2°50.887 255.5 3.1 247 8.7
2005-10-06 07:13:34 51°14.331 2°50.881 255.4 3.1 246 8.6
2005-10-06 07:13:39 51°14.329 2°50.875 255.1 3.1 246 8.7
2005-10-06 07:13:44 51°14.327 2°50.869 255.1 3 245 8.6
2005-10-06 07:13:49 51°14.325 2°50.863 255.2 3 247 8.6
2005-10-06 07:13:54 51°14.324 2°50.857 255 3.1 246 8.5
2005-10-06 07:13:59 51°14.322 2°50.85 254.9 3 246 8.5
2005-10-06 07:14:04 51°14.32 2°50.844 254.9 3 247 8.6
2005-10-06 07:14:08 51°14.319 2°50.84 254.7 3 245 8.6
2005-10-06 07:14:14 51°14.317 2°50.832 254.8 3 247 8.6
2005-10-06 07:14:19 51°14.315 2°50.826 254.7 3 244 8.6
2005-10-06 07:14:24 51°14.313 2°50.82 254.7 3 247 8.5
2005-10-06 07:14:29 51°14.312 2°50.814 254.7 3 247 8.5
2005-10-06 07:14:34 51°14.31 2°50.808 254.7 3 247 8.6
2005-10-06 07:14:39 51°14.308 2°50.802 254.7 3 244 8.5
2005-10-06 07:14:44 51°14.307 2°50.796 254.7 3 247 8.5
2005-10-06 07:14:49 51°14.305 2°50.79 254.7 3 244 8.6
2005-10-06 07:14:54 51°14.303 2°50.784 254.7 3 246 8.6
2005-10-06 07:14:59 51°14.302 2°50.778 254.7 3 245 8.6
2005-10-06 07:15:04 51°14.3 2°50.772 254.7 2.9 248 8.5
2005-10-06 07:15:08 51°14.299 2°50.768 254.7 3 245 8.5
2005-10-06 07:15:14 51°14.297 2°50.76 254.6 3 246 8.5
2005-10-06 07:15:19 51°14.295 2°50.755 254.5 3 247 8.5
2005-10-06 07:15:24 51°14.293 2°50.749 254.5 2.9 246 8.4
2005-10-06 07:15:29 51°14.292 2°50.743 254.4 2.9 246 8.4
2005-10-06 07:15:34 51°14.29 2°50.737 254.2 3 247 8.4
2005-10-06 07:15:39 51°14.288 2°50.731 254.1 2.9 245 8.5
2005-10-06 07:15:44 51°14.287 2°50.725 254.1 3 245 8.6
2005-10-06 07:15:49 51°14.285 2°50.719 254 3 244 8.6
2005-10-06 07:15:54 51°14.283 2°50.713 254 2.9 244 8.6
2005-10-06 07:15:59 51°14.282 2°50.708 253.9 2.9 246 8.6
2005-10-06 07:16:04 51°14.28 2°50.702 253.8 2.9 246 8.5
2005-10-06 07:16:09 51°14.278 2°50.696 253.8 2.9 247 8.5
2005-10-06 07:16:14 51°14.277 2°50.69 253.8 2.9 246 8.5
2005-10-06 07:16:19 51°14.275 2°50.684 253.9 2.9 247 8.5
2005-10-06 07:16:24 51°14.274 2°50.678 253.9 2.9 245 8.4
2005-10-06 07:16:29 51°14.272 2°50.673 253.9 2.9 246 8.5
2005-10-06 07:16:34 51°14.27 2°50.667 253.9 2.9 247 8.5
2005-10-06 07:16:39 51°14.268 2°50.661 253.9 2.9 246 8.5
2005-10-06 07:16:44 51°14.267 2°50.655 253.9 2.9 245 8.4
2005-10-06 07:16:49 51°14.265 2°50.649 253.8 2.9 245 8.4
2005-10-06 07:16:54 51°14.263 2°50.643 253.9 2.9 245 8.5
2005-10-06 07:16:59 51°14.262 2°50.637 253.9 2.9 245 8.5
2005-10-06 07:17:04 51°14.26 2°50.632 253.6 2.9 244 8.5
2005-10-06 07:17:09 51°14.258 2°50.626 253.8 2.8 246 8.5
2005-10-06 07:17:14 51°14.257 2°50.62 253.8 2.9 245 8.5
2005-10-06 07:17:19 51°14.255 2°50.614 253.9 2.9 245 8.5
2005-10-06 07:17:24 51°14.253 2°50.608 253.7 2.9 244 8.5
2005-10-06 07:17:29 51°14.252 2°50.603 253.8 2.9 246 8.6
2005-10-06 07:17:34 51°14.25 2°50.597 253.9 2.9 245 8.5
2005-10-06 07:17:39 51°14.249 2°50.591 254 2.9 246 8.4
2005-10-06 07:17:44 51°14.247 2°50.585 253.9 2.9 246 8.5
2005-10-06 07:17:49 51°14.245 2°50.58 254 2.9 245 8.4
2005-10-06 07:17:54 51°14.244 2°50.574 254.1 2.9 244 8.5
2005-10-06 07:17:59 51°14.242 2°50.568 254 2.9 244 8.4
2005-10-06 07:18:04 51°14.24 2°50.562 254 2.9 245 8.4
2005-10-06 07:18:09 51°14.238 2°50.556 254 2.9 247 8.4
2005-10-06 07:18:14 51°14.237 2°50.551 254 2.9 246 8.4
2005-10-06 07:18:19 51°14.235 2°50.545 254 2.9 246 8.4
2005-10-06 07:18:24 51°14.234 2°50.539 254 2.9 245 8.5
2005-10-06 07:18:29 51°14.232 2°50.533 254.1 2.9 245 8.5
2005-10-06 07:18:34 51°14.23 2°50.528 254.1 2.9 244 8.4
2005-10-06 07:18:39 51°14.229 2°50.522 254.1 2.9 245 8.4
2005-10-06 07:18:44 51°14.227 2°50.516 254.2 2.9 244 8.5
2005-10-06 07:18:49 51°14.225 2°50.511 254.4 2.8 246 8.6
2005-10-06 07:18:54 51°14.223 2°50.505 254.5 2.9 246 8.3
2005-10-06 07:18:59 51°14.222 2°50.499 254.6 2.8 246 8.4
2005-10-06 07:19:04 51°14.22 2°50.493 254.7 2.9 246 8.5
2005-10-06 07:19:08 51°14.219 2°50.489 254.7 2.8 246 8.4
2005-10-06 07:19:14 51°14.217 2°50.482 254.9 2.9 246 8.4
2005-10-06 07:19:19 51°14.215 2°50.476 255 2.8 247 8.4
2005-10-06 07:19:24 51°14.214 2°50.471 254.9 2.8 245 8.4
2005-10-06 07:19:29 51°14.212 2°50.465 254.8 2.8 247 8.4
2005-10-06 07:19:34 51°14.21 2°50.459 254.8 2.9 245 8.3
2005-10-06 07:19:39 51°14.209 2°50.454 254.7 2.9 246 8.4
2005-10-06 07:19:44 51°14.207 2°50.448 254.7 2.8 246 8.5
2005-10-06 07:19:49 51°14.205 2°50.442 254.7 2.9 246 8.5
2005-10-06 07:19:54 51°14.204 2°50.436 254.6 2.9 246 8.4
2005-10-06 07:19:59 51°14.202 2°50.431 254.6 2.8 246 8.4
2005-10-06 07:20:04 51°14.201 2°50.425 254.4 2.9 246 8.5
2005-10-06 07:20:09 51°14.199 2°50.419 254.5 2.9 246 8.3
2005-10-06 07:20:14 51°14.198 2°50.413 254.3 2.9 246 8.3
2005-10-06 07:20:19 51°14.196 2°50.408 254.4 2.8 245 8.5
2005-10-06 07:20:24 51°14.194 2°50.402 254.5 2.8 245 8.4
2005-10-06 07:20:29 51°14.193 2°50.396 254.4 2.8 247 8.4
2005-10-06 07:20:34 51°14.191 2°50.391 254.3 2.8 247 8.4
2005-10-06 07:20:39 51°14.189 2°50.385 254.3 2.8 247 8.4
2005-10-06 07:20:44 51°14.188 2°50.379 254.5 2.9 245 8.4
2005-10-06 07:20:49 51°14.186 2°50.373 254.6 2.9 247 8.4
2005-10-06 07:20:54 51°14.184 2°50.367 254.6 2.9 246 8.3
2005-10-06 07:20:59 51°14.183 2°50.362 254.7 2.9 246 8.4
2005-10-06 07:21:04 51°14.181 2°50.356 254.7 2.8 246 8.2
2005-10-06 07:21:08 51°14.18 2°50.352 254.8 2.8 245 8.4
2005-10-06 07:21:14 51°14.178 2°50.345 254.8 2.8 246 8.4
2005-10-06 07:21:19 51°14.176 2°50.339 254.8 2.8 246 8.3
2005-10-06 07:21:24 51°14.174 2°50.333 254.7 2.8 246 8.4
2005-10-06 07:21:29 51°14.173 2°50.328 254.7 2.9 245 8.4
2005-10-06 07:21:34 51°14.171 2°50.322 254.6 2.8 246 8.3
2005-10-06 07:21:39 51°14.169 2°50.316 254.7 2.8 247 8.3
2005-10-06 07:21:44 51°14.168 2°50.31 254.7 2.8 246 8.4
2005-10-06 07:21:48 51°14.166 2°50.306 254.7 2.8 246 8.3
2005-10-06 07:21:54 51°14.165 2°50.299 254.7 2.8 244 8.4
2005-10-06 07:21:59 51°14.163 2°50.293 254.8 2.8 245 8.2
2005-10-06 07:22:04 51°14.161 2°50.288 254.9 2.8 246 8.3
2005-10-06 07:22:09 51°14.16 2°50.282 255 2.8 246 8.3
2005-10-06 07:22:14 51°14.158 2°50.276 255 2.8 245 8.3
2005-10-06 07:22:19 51°14.157 2°50.27 255.1 2.8 246 8.3
2005-10-06 07:22:24 51°14.155 2°50.265 255 2.8 244 8.4
2005-10-06 07:22:29 51°14.153 2°50.259 255.1 2.8 247 8.3
2005-10-06 07:22:34 51°14.152 2°50.253 255.1 2.8 245 8.3
2005-10-06 07:22:39 51°14.15 2°50.247 255 2.8 249 8.3
2005-10-06 07:22:44 51°14.148 2°50.242 255.2 2.9 244 8.3
2005-10-06 07:22:48 51°14.147 2°50.237 255.1 2.8 247 8.2
2005-10-06 07:22:54 51°14.145 2°50.23 255.2 2.8 243 8.3
2005-10-06 07:22:59 51°14.144 2°50.225 255.2 2.8 246 8.3
2005-10-06 07:23:04 51°14.142 2°50.219 255.3 2.8 244 8.2
2005-10-06 07:23:09 51°14.141 2°50.213 255.3 2.8 248 8.3
2005-10-06 07:23:14 51°14.139 2°50.207 255.4 2.8 245 8.2
2005-10-06 07:23:19 51°14.137 2°50.202 255.4 2.8 249 8.3
2005-10-06 07:23:24 51°14.136 2°50.196 255.4 2.8 245 8.3
2005-10-06 07:23:29 51°14.134 2°50.19 255.4 2.8 248 8.3
2005-10-06 07:23:34 51°14.133 2°50.184 255.4 2.8 245 8.4
2005-10-06 07:23:39 51°14.131 2°50.179 255.4 2.8 248 8.2
2005-10-06 07:23:44 51°14.129 2°50.173 255.4 2.8 245 8.4
2005-10-06 07:23:49 51°14.128 2°50.167 255.4 2.8 248 8.2
2005-10-06 07:23:54 51°14.126 2°50.162 255.4 2.8 246 8.3
2005-10-06 07:23:59 51°14.125 2°50.156 255.4 2.8 248 8.2
2005-10-06 07:24:04 51°14.123 2°50.15 255.3 2.8 244 8.2
2005-10-06 07:24:09 51°14.121 2°50.145 255.3 2.8 246 8.1
2005-10-06 07:24:14 51°14.12 2°50.139 255.3 2.8 246 8.3
2005-10-06 07:24:19 51°14.118 2°50.133 255.3 2.8 246 8.2
2005-10-06 07:24:24 51°14.117 2°50.127 255.3 2.8 246 8.3
2005-10-06 07:24:29 51°14.115 2°50.122 255.3 2.8 247 8.1
2005-10-06 07:24:34 51°14.113 2°50.116 255.3 2.8 244 8.2
2005-10-06 07:24:39 51°14.112 2°50.111 255.1 2.8 247 8.2
2005-10-06 07:24:44 51°14.11 2°50.105 255.1 2.8 245 8.3
2005-10-06 07:24:49 51°14.109 2°50.099 254.9 2.8 246 8.3
2005-10-06 07:24:54 51°14.107 2°50.094 254.9 2.8 245 8.3
2005-10-06 07:24:59 51°14.105 2°50.088 254.7 2.8 246 8.2
2005-10-06 07:25:04 51°14.104 2°50.083 254.7 2.8 245 8.2
2005-10-06 07:25:09 51°14.102 2°50.077 254.5 2.8 247 8.2
2005-10-06 07:25:14 51°14.101 2°50.071 254.7 2.8 247 8.2
2005-10-06 07:25:19 51°14.099 2°50.066 254.6 2.8 247 8.2
2005-10-06 07:25:24 51°14.097 2°50.06 254.6 2.8 245 8.3
2005-10-06 07:25:29 51°14.096 2°50.054 254.5 2.8 247 8.2
2005-10-06 07:25:34 51°14.094 2°50.049 254.7 2.8 245 8.2
2005-10-06 07:25:39 51°14.092 2°50.043 254.6 2.8 247 8.2
2005-10-06 07:25:44 51°14.091 2°50.038 254.6 2.8 246 8.3
2005-10-06 07:25:49 51°14.089 2°50.032 254.7 2.7 247 8.1
2005-10-06 07:25:54 51°14.088 2°50.026 254.7 2.8 246 8.2
2005-10-06 07:25:59 51°14.086 2°50.021 254.9 2.8 246 8.2
2005-10-06 07:26:04 51°14.084 2°50.015 255 2.8 244 8.4
2005-10-06 07:26:09 51°14.082 2°50.01 255 2.8 246 8.2
2005-10-06 07:26:14 51°14.081 2°50.004 254.9 2.8 246 8.2
2005-10-06 07:26:19 51°14.079 2°49.998 255.3 2.8 245 8.3
2005-10-06 07:26:24 51°14.078 2°49.993 255.3 2.7 246 8.3
2005-10-06 07:26:29 51°14.076 2°49.987 255.2 2.8 246 8.2
2005-10-06 07:26:34 51°14.075 2°49.982 255 2.8 246 8.2
2005-10-06 07:26:39 51°14.073 2°49.976 255 2.8 245 8.1
2005-10-06 07:26:44 51°14.071 2°49.971 255.1 2.8 246 8.2
2005-10-06 07:26:49 51°14.07 2°49.965 255.1 2.7 246 8.2
2005-10-06 07:26:54 51°14.068 2°49.96 255.1 2.7 246 8.1
2005-10-06 07:26:59 51°14.067 2°49.954 255.3 2.7 247 8.2
2005-10-06 07:27:04 51°14.065 2°49.948 255.3 2.7 247 8.2
2005-10-06 07:27:09 51°14.064 2°49.943 255.2 2.7 246 8.2
2005-10-06 07:27:14 51°14.062 2°49.937 255.4 2.8 246 8.1
2005-10-06 07:27:19 51°14.061 2°49.932 255.4 2.7 246 8.1
2005-10-06 07:27:24 51°14.059 2°49.926 255.5 2.7 246 8.2
2005-10-06 07:27:29 51°14.058 2°49.92 255.6 2.8 247 8.1
2005-10-06 07:27:34 51°14.056 2°49.915 255.5 2.7 246 8.2
2005-10-06 07:27:39 51°14.055 2°49.909 255.4 2.8 246 8.2
2005-10-06 07:27:44 51°14.053 2°49.904 255.4 2.8 246 8.1
2005-10-06 07:27:49 51°14.052 2°49.898 255.4 2.8 248 8.1
2005-10-06 07:27:54 51°14.05 2°49.892 255.4 2.8 247 8.1
2005-10-06 07:27:59 51°14.048 2°49.887 255.6 2.8 246 8.1
2005-10-06 07:28:04 51°14.047 2°49.881 255.4 2.8 246 8.1
2005-10-06 07:28:09 51°14.045 2°49.876 255.4 2.8 247 8.1
2005-10-06 07:28:14 51°14.044 2°49.87 255.3 2.8 246 8
2005-10-06 07:28:19 51°14.042 2°49.865 255.3 2.8 247 8.1
2005-10-06 07:28:24 51°14.041 2°49.859 255.6 2.8 246 8.1
2005-10-06 07:28:29 51°14.039 2°49.854 255.4 2.7 246 8.1
2005-10-06 07:28:34 51°14.038 2°49.848 255.4 2.7 246 8
2005-10-06 07:28:39 51°14.036 2°49.842 255.4 2.7 247 8
2005-10-06 07:28:44 51°14.035 2°49.837 255.4 2.8 246 8
2005-10-06 07:28:49 51°14.033 2°49.831 255.5 2.8 247 7.9
2005-10-06 07:28:54 51°14.032 2°49.826 255.4 2.8 247 8.1
2005-10-06 07:28:59 51°14.03 2°49.82 255.4 2.8 247 8
2005-10-06 07:29:04 51°14.029 2°49.815 255.4 2.7 245 8.1
2005-10-06 07:29:09 51°14.027 2°49.809 255.6 2.8 246 8
2005-10-06 07:29:14 51°14.026 2°49.803 255.5 2.8 247 8.1
2005-10-06 07:29:19 51°14.024 2°49.798 255.4 2.8 248 8.2
2005-10-06 07:29:24 51°14.023 2°49.792 255.5 2.8 247 8.1
2005-10-06 07:29:29 51°14.021 2°49.787 255.6 2.8 246 8.1
2005-10-06 07:29:34 51°14.019 2°49.781 255.4 2.8 245 8.1
2005-10-06 07:29:39 51°14.018 2°49.776 255.4 2.7 246 8.1
2005-10-06 07:29:44 51°14.016 2°49.77 255.4 2.8 247 8
2005-10-06 07:29:49 51°14.015 2°49.765 255.3 2.7 247 8.1
2005-10-06 07:29:54 51°14.013 2°49.759 255.2 2.8 246 8
2005-10-06 07:29:59 51°14.012 2°49.754 255 2.7 246 8.1
2005-10-06 07:30:04 51°14.01 2°49.748 255.1 2.7 246 8.2
2005-10-06 07:30:09 51°14.009 2°49.743 255.1 2.7 247 8.1
2005-10-06 07:30:14 51°14.007 2°49.737 255 2.7 246 8.1
2005-10-06 07:30:19 51°14.006 2°49.732 255 2.7 247 8.1
2005-10-06 07:30:24 51°14.004 2°49.726 255 2.8 247 8.1
2005-10-06 07:30:29 51°14.003 2°49.721 255 2.7 246 8
2005-10-06 07:30:34 51°14.001 2°49.715 255.1 2.7 248 8.1
2005-10-06 07:30:39 51°13.999 2°49.71 255.1 2.8 245 8.1
2005-10-06 07:30:44 51°13.998 2°49.704 255.1 2.8 248 8.1
2005-10-06 07:30:49 51°13.996 2°49.698 255.1 2.7 245 8.1
2005-10-06 07:30:54 51°13.995 2°49.693 255.4 2.7 248 8
2005-10-06 07:30:59 51°13.993 2°49.687 255.4 2.7 247 8.1
2005-10-06 07:31:04 51°13.992 2°49.682 255.3 2.7 247 8.1
2005-10-06 07:31:09 51°13.99 2°49.676 255.3 2.7 245 8.2
2005-10-06 07:31:14 51°13.989 2°49.671 255.1 2.8 247 8
2005-10-06 07:31:19 51°13.987 2°49.665 255.1 2.8 244 8.1
2005-10-06 07:31:24 51°13.985 2°49.66 254.8 2.7 246 8.1
2005-10-06 07:31:29 51°13.984 2°49.654 254.7 2.7 246 8.1
2005-10-06 07:31:34 51°13.982 2°49.649 254.6 2.7 246 8
2005-10-06 07:31:39 51°13.981 2°49.643 254.6 2.7 246 8.1
2005-10-06 07:31:44 51°13.979 2°49.638 254.5 2.8 246 8.1
2005-10-06 07:31:49 51°13.977 2°49.632 254.4 2.8 245 8.1
2005-10-06 07:31:54 51°13.976 2°49.627 254.2 2.7 247 8.1
2005-10-06 07:31:59 51°13.974 2°49.621 254.3 2.8 245 8.2
2005-10-06 07:32:04 51°13.973 2°49.616 254.5 2.7 247 8.1
2005-10-06 07:32:08 51°13.971 2°49.611 254.5 2.7 246 8.2
2005-10-06 07:32:14 51°13.969 2°49.605 254.4 2.8 244 8.1
2005-10-06 07:32:19 51°13.968 2°49.599 254.3 2.7 245 8.1
2005-10-06 07:32:24 51°13.966 2°49.593 254.4 2.8 246 8.2
2005-10-06 07:32:29 51°13.965 2°49.588 254.6 2.8 244 8.1
2005-10-06 07:32:34 51°13.963 2°49.582 254.6 2.7 246 8.2
2005-10-06 07:32:39 51°13.961 2°49.577 254.7 2.8 245 8.1
2005-10-06 07:32:44 51°13.96 2°49.571 254.8 2.8 245 8.1
2005-10-06 07:32:49 51°13.958 2°49.566 254.9 2.7 246 8.2
2005-10-06 07:32:54 51°13.956 2°49.56 255 2.8 245 8.1
2005-10-06 07:32:59 51°13.955 2°49.554 255 2.7 245 8.1
2005-10-06 07:33:04 51°13.953 2°49.549 255 2.7 246 8.1
2005-10-06 07:33:09 51°13.952 2°49.543 255.1 2.7 247 8.2
2005-10-06 07:33:14 51°13.95 2°49.538 255.1 2.7 246 8.2
2005-10-06 07:33:19 51°13.949 2°49.533 255.3 2.7 245 8.1
2005-10-06 07:33:24 51°13.947 2°49.527 255.3 2.7 247 8.1
2005-10-06 07:33:29 51°13.946 2°49.521 255.4 2.7 248 8
2005-10-06 07:33:34 51°13.944 2°49.516 255.4 2.7 246 8.1
2005-10-06 07:33:39 51°13.943 2°49.51 255.5 2.7 245 8.1
2005-10-06 07:33:44 51°13.941 2°49.505 255.8 2.7 245 8.1
2005-10-06 07:33:49 51°13.939 2°49.499 256 2.7 246 8.1
2005-10-06 07:33:54 51°13.938 2°49.494 256.2 2.7 248 8.2
2005-10-06 07:33:59 51°13.936 2°49.488 256.3 2.8 247 8.2
2005-10-06 07:34:04 51°13.935 2°49.482 256.6 2.8 247 8.2
2005-10-06 07:34:09 51°13.934 2°49.476 256.6 2.8 246 8.2
2005-10-06 07:34:14 51°13.932 2°49.47 256.6 2.9 246 8.1
2005-10-06 07:34:19 51°13.93 2°49.465 256.7 2.9 247 8.2
2005-10-06 07:34:24 51°13.929 2°49.459 256.8 2.9 247 8.2
2005-10-06 07:34:29 51°13.927 2°49.453 256.9 2.9 247 8.2
2005-10-06 07:34:34 51°13.925 2°49.447 256.9 3 248 8
2005-10-06 07:34:39 51°13.924 2°49.441 256.9 3 248 8.1
2005-10-06 07:34:44 51°13.922 2°49.435 256.9 3 246 8.2
2005-10-06 07:34:49 51°13.92 2°49.429 256.9 3 246 8.1
2005-10-06 07:34:54 51°13.919 2°49.422 256.8 3 247 8.2
2005-10-06 07:34:59 51°13.917 2°49.416 256.9 3 247 8.1
2005-10-06 07:35:04 51°13.915 2°49.41 256.9 3.1 247 8.2
2005-10-06 07:35:09 51°13.914 2°49.404 257 3.1 246 8.3
2005-10-06 07:35:14 51°13.912 2°49.398 257 3.1 247 8.2
2005-10-06 07:35:19 51°13.91 2°49.392 257 3.1 247 8.3
2005-10-06 07:35:24 51°13.909 2°49.385 257 3.1 248 8.2
2005-10-06 07:35:29 51°13.907 2°49.379 257 3.1 247 8.2
2005-10-06 07:35:34 51°13.905 2°49.372 257.1 3.1 248 8.2
2005-10-06 07:35:39 51°13.904 2°49.366 257.2 3.1 247 8.2
2005-10-06 07:35:44 51°13.902 2°49.36 257.2 3.1 247 8.3
2005-10-06 07:35:49 51°13.9 2°49.353 257.3 3.2 248 8.2
2005-10-06 07:35:54 51°13.899 2°49.347 257.5 3.1 248 8.3
2005-10-06 07:35:59 51°13.897 2°49.34 257.5 3.2 247 8.2
2005-10-06 07:36:04 51°13.895 2°49.334 257.5 3.2 248 8.2
2005-10-06 07:36:09 51°13.894 2°49.328 257.5 3.2 248 8.2
2005-10-06 07:36:14 51°13.892 2°49.321 257.6 3.2 247 8.3
2005-10-06 07:36:19 51°13.89 2°49.314 257.6 3.2 248 8.2
2005-10-06 07:36:24 51°13.889 2°49.308 257.7 3.2 248 8.2
2005-10-06 07:36:28 51°13.887 2°49.303 257.9 3.2 249 8.2
2005-10-06 07:36:34 51°13.885 2°49.295 258 3.2 249 8.2
2005-10-06 07:36:39 51°13.884 2°49.288 258 3.2 248 8.3
2005-10-06 07:36:44 51°13.882 2°49.281 258.2 3.2 248 8.2
2005-10-06 07:36:49 51°13.881 2°49.275 258.2 3.2 249 8.3
2005-10-06 07:36:54 51°13.879 2°49.268 258.3 3.2 249 8.2
2005-10-06 07:36:59 51°13.877 2°49.262 258.3 3.2 249 8.3
2005-10-06 07:37:04 51°13.876 2°49.255 258.3 3.2 249 8.2
2005-10-06 07:37:08 51°13.874 2°49.25 258.4 3.2 248 8.3
2005-10-06 07:37:14 51°13.872 2°49.242 258.4 3.3 248 8.2
2005-10-06 07:37:19 51°13.871 2°49.235 258.3 3.2 250 8.2
2005-10-06 07:37:24 51°13.869 2°49.228 258.4 3.3 250 8.3
2005-10-06 07:37:29 51°13.867 2°49.222 258.3 3.3 249 8.2
2005-10-06 07:37:34 51°13.866 2°49.215 258.3 3.3 247 8.2
2005-10-06 07:37:39 51°13.864 2°49.208 258.3 3.2 248 8.3
2005-10-06 07:37:44 51°13.862 2°49.202 258.3 3.2 248 8.3
2005-10-06 07:37:49 51°13.861 2°49.195 258.3 3.2 249 8.3
2005-10-06 07:37:54 51°13.859 2°49.188 258.1 3.2 248 8.3
2005-10-06 07:37:59 51°13.857 2°49.182 258.1 3.3 249 8.3
2005-10-06 07:38:04 51°13.856 2°49.176 257.9 3.2 248 8.2
2005-10-06 07:38:09 51°13.854 2°49.169 258 3.3 248 8.1
2005-10-06 07:38:14 51°13.852 2°49.162 258 3.2 247 8.2
2005-10-06 07:38:19 51°13.851 2°49.156 258 3.2 248 8.1
2005-10-06 07:38:24 51°13.849 2°49.149 257.9 3.2 247 8.2
2005-10-06 07:38:29 51°13.847 2°49.143 257.8 3.2 248 8.1
2005-10-06 07:38:34 51°13.846 2°49.137 257.9 3.1 249 8.1
2005-10-06 07:38:39 51°13.844 2°49.13 257.8 3.1 248 8.2
2005-10-06 07:38:44 51°13.843 2°49.124 258 3.1 248 8.1
2005-10-06 07:38:48 51°13.841 2°49.119 258.1 3.1 248 8.2
2005-10-06 07:38:54 51°13.839 2°49.111 258.2 3.1 247 8.1
2005-10-06 07:38:59 51°13.838 2°49.105 258.2 3.1 248 8.2
2005-10-06 07:39:04 51°13.836 2°49.098 258.3 3.1 247 8.2
2005-10-06 07:39:09 51°13.835 2°49.092 258.3 3 250 8.2
2005-10-06 07:39:14 51°13.833 2°49.086 258.3 3.1 249 8.2
2005-10-06 07:39:19 51°13.832 2°49.08 258.2 3 249 8.2
2005-10-06 07:39:24 51°13.83 2°49.074 258.2 3 247 8.2
2005-10-06 07:39:29 51°13.828 2°49.067 258.1 3 250 8.1
2005-10-06 07:39:34 51°13.827 2°49.061 258.1 3 247 8.2
2005-10-06 07:39:39 51°13.825 2°49.055 258.1 3 248 8.1
2005-10-06 07:39:44 51°13.824 2°49.049 258.2 3.1 247 8.1
2005-10-06 07:39:49 51°13.822 2°49.043 258.1 3.1 250 8.2
2005-10-06 07:39:54 51°13.82 2°49.036 258 3.1 248 8.2
2005-10-06 07:39:59 51°13.819 2°49.03 258.1 3 249 8.2
2005-10-06 07:40:04 51°13.817 2°49.024 258.3 3 249 8.2
2005-10-06 07:40:09 51°13.816 2°49.018 258.2 3 249 8.1
2005-10-06 07:40:14 51°13.814 2°49.012 258.2 2.9 249 8.1
2005-10-06 07:40:19 51°13.813 2°49.005 258.1 2.9 248 8.2
2005-10-06 07:40:24 51°13.811 2°48.999 258.2 3 248 8.3
2005-10-06 07:40:29 51°13.81 2°48.993 258.1 3 248 8.3
2005-10-06 07:40:34 51°13.808 2°48.987 258.2 3 248 8.3
2005-10-06 07:40:39 51°13.807 2°48.981 258.1 3 249 8.3
2005-10-06 07:40:44 51°13.805 2°48.975 257.9 3 246 8.3
2005-10-06 07:40:49 51°13.803 2°48.969 257.9 3 249 8.2
2005-10-06 07:40:54 51°13.802 2°48.963 257.7 3 249 8.5
2005-10-06 07:40:59 51°13.8 2°48.957 257.6 3 247 8.4
2005-10-06 07:41:04 51°13.799 2°48.95 257.5 3 247 8.4
2005-10-06 07:41:08 51°13.797 2°48.945 257.3 3 247 8.4
2005-10-06 07:41:14 51°13.796 2°48.938 257.2 3 248 8.5
2005-10-06 07:41:19 51°13.794 2°48.932 256.9 3 246 8.6
2005-10-06 07:41:24 51°13.792 2°48.926 256.9 3 246 8.6
2005-10-06 07:41:29 51°13.791 2°48.92 256.8 3 246 8.6
2005-10-06 07:41:34 51°13.789 2°48.914 256.7 3 246 8.6
2005-10-06 07:41:39 51°13.787 2°48.908 256.7 3 247 8.6
2005-10-06 07:41:44 51°13.786 2°48.901 256.6 3 245 8.7
2005-10-06 07:41:49 51°13.784 2°48.896 256.7 3 248 8.6
2005-10-06 07:41:54 51°13.782 2°48.889 256.8 3 247 8.6
2005-10-06 07:41:59 51°13.781 2°48.883 256.9 3 247 8.7
2005-10-06 07:42:04 51°13.779 2°48.878 256.9 3 247 8.7
2005-10-06 07:42:09 51°13.778 2°48.872 257 2.9 247 8.7
2005-10-06 07:42:14 51°13.776 2°48.865 257.2 2.9 248 8.7
2005-10-06 07:42:19 51°13.774 2°48.859 257.2 3 245 8.6
2005-10-06 07:42:24 51°13.773 2°48.853 257.3 3 247 8.6
2005-10-06 07:42:29 51°13.771 2°48.847 257.5 3 247 8.7
2005-10-06 07:42:34 51°13.77 2°48.842 257.6 3 246 8.7
2005-10-06 07:42:39 51°13.768 2°48.836 257.6 2.9 247 8.7
2005-10-06 07:42:44 51°13.766 2°48.83 257.6 3 247 8.7
2005-10-06 07:42:49 51°13.765 2°48.824 257.6 3 248 8.7
2005-10-06 07:42:54 51°13.763 2°48.818 257.5 3 246 8.7
2005-10-06 07:42:59 51°13.761 2°48.812 257.5 2.9 246 8.8
2005-10-06 07:43:04 51°13.76 2°48.806 257.5 2.9 247 8.8
2005-10-06 07:43:09 51°13.758 2°48.8 257.5 2.9 245 8.7
2005-10-06 07:43:14 51°13.757 2°48.794 257.2 2.9 246 8.8
2005-10-06 07:43:19 51°13.755 2°48.788 257.2 3 246 8.8
2005-10-06 07:43:24 51°13.754 2°48.782 257.1 2.9 248 8.8
2005-10-06 07:43:29 51°13.752 2°48.776 257 3 247 8.8
2005-10-06 07:43:34 51°13.75 2°48.77 256.9 3 248 8.7
2005-10-06 07:43:39 51°13.749 2°48.763 256.9 3.2 247 8.8
2005-10-06 07:43:44 51°13.747 2°48.756 257 3.2 248 8.8
2005-10-06 07:43:49 51°13.745 2°48.75 256.9 3.2 248 8.8
2005-10-06 07:43:54 51°13.743 2°48.743 256.8 3.3 249 8.8
2005-10-06 07:43:59 51°13.742 2°48.736 257.2 3.4 248 8.8
2005-10-06 07:44:04 51°13.74 2°48.729 257.6 3.4 250 8.8
2005-10-06 07:44:09 51°13.738 2°48.722 258.3 3.4 248 8.9
2005-10-06 07:44:14 51°13.737 2°48.714 258.9 3.5 251 8.9
2005-10-06 07:44:19 51°13.735 2°48.707 259.7 3.5 249 8.9
2005-10-06 07:44:24 51°13.733 2°48.7 260.5 3.5 250 8.9
2005-10-06 07:44:29 51°13.732 2°48.692 261.5 3.5 253 8.9
2005-10-06 07:44:34 51°13.73 2°48.685 262.1 3.6 252 9
2005-10-06 07:44:39 51°13.729 2°48.677 263.1 3.5 254 8.9
2005-10-06 07:44:44 51°13.727 2°48.669 264 3.6 253 8.9
2005-10-06 07:44:49 51°13.726 2°48.662 264.9 3.6 255 9
2005-10-06 07:44:54 51°13.725 2°48.654 265.7 3.6 255 9
2005-10-06 07:44:59 51°13.723 2°48.646 266.4 3.6 255 9
2005-10-06 07:45:04 51°13.722 2°48.638 267 3.6 256 8.9
2005-10-06 07:45:09 51°13.721 2°48.63 267.8 3.6 256 9
2005-10-06 07:45:14 51°13.72 2°48.623 268.5 3.7 256 9
2005-10-06 07:45:19 51°13.719 2°48.615 269 3.7 257 9.2
2005-10-06 07:45:24 51°13.717 2°48.607 269.4 3.7 257 9.1
2005-10-06 07:45:29 51°13.716 2°48.599 270.1 3.7 258 9.1
2005-10-06 07:45:34 51°13.715 2°48.591 270.6 3.7 258 9.2
2005-10-06 07:45:39 51°13.714 2°48.583 271 3.7 258 9.1
2005-10-06 07:45:44 51°13.713 2°48.575 271.4 3.7 259 9.1
2005-10-06 07:45:49 51°13.712 2°48.567 271.9 3.7 259 9.1
2005-10-06 07:45:54 51°13.711 2°48.559 272.2 3.8 260 9.2
2005-10-06 07:45:59 51°13.71 2°48.55 272.9 3.8 260 9.1
2005-10-06 07:46:04 51°13.71 2°48.542 273.6 3.8 260 9.2
2005-10-06 07:46:09 51°13.709 2°48.534 273.9 3.8 261 9.2
2005-10-06 07:46:14 51°13.708 2°48.526 274.3 3.8 260 9.3
2005-10-06 07:46:19 51°13.707 2°48.517 274.8 3.8 262 9.2
2005-10-06 07:46:24 51°13.706 2°48.509 275.2 3.8 260 9.3
2005-10-06 07:46:29 51°13.705 2°48.5 275.8 3.8 262 9.3
2005-10-06 07:46:34 51°13.704 2°48.492 276.3 3.9 260 9.2
2005-10-06 07:46:39 51°13.704 2°48.484 276.6 3.8 263 9.3
2005-10-06 07:46:44 51°13.703 2°48.475 276.8 3.9 262 9.3
2005-10-06 07:46:49 51°13.702 2°48.467 277.2 3.9 263 9.4
2005-10-06 07:46:54 51°13.702 2°48.458 277.3 3.9 262 9.4
2005-10-06 07:46:59 51°13.701 2°48.449 277.7 4 264 9.4
2005-10-06 07:47:04 51°13.7 2°48.44 278 4.1 263 9.5
2005-10-06 07:47:09 51°13.7 2°48.431 278 4 263 9.5
2005-10-06 07:47:14 51°13.699 2°48.423 277.9 4 263 9.5
2005-10-06 07:47:19 51°13.698 2°48.414 277.9 4 261 9.5
2005-10-06 07:47:24 51°13.698 2°48.406 278 3.8 263 9.6
2005-10-06 07:47:28 51°13.697 2°48.399 278.1 3.7 263 9.5
2005-10-06 07:47:34 51°13.696 2°48.389 278.4 3.7 263 9.6
2005-10-06 07:47:39 51°13.695 2°48.381 278.7 3.7 260 9.6
2005-10-06 07:47:44 51°13.695 2°48.374 278.8 3.6 262 9.7
2005-10-06 07:47:48 51°13.694 2°48.368 278.8 3.5 263 9.7
2005-10-06 07:47:54 51°13.693 2°48.358 279.1 3.5 262 9.6
2005-10-06 07:47:59 51°13.693 2°48.351 279.2 3.5 262 9.8
2005-10-06 07:48:04 51°13.692 2°48.343 279.4 3.4 261 9.8
2005-10-06 07:48:09 51°13.691 2°48.336 279.5 3.3 262 9.8
2005-10-06 07:48:14 51°13.691 2°48.329 279.7 3.3 262 9.7
2005-10-06 07:48:19 51°13.69 2°48.322 279.6 3.3 261 9.6
2005-10-06 07:48:24 51°13.689 2°48.314 279.6 3.3 261 9.6
2005-10-06 07:48:29 51°13.688 2°48.308 279.6 3.3 261 9.7
2005-10-06 07:48:34 51°13.688 2°48.3 279.6 3.2 261 9.7
2005-10-06 07:48:39 51°13.687 2°48.294 279.5 3.2 260 9.7
2005-10-06 07:48:44 51°13.686 2°48.287 279.4 3.1 260 9.6
2005-10-06 07:48:49 51°13.685 2°48.28 279.1 3.1 261 9.7
2005-10-06 07:48:54 51°13.684 2°48.274 279 3.1 260 9.7
2005-10-06 07:48:59 51°13.684 2°48.267 278.9 3.1 258 9.8
2005-10-06 07:49:04 51°13.683 2°48.261 278.8 3.1 258 9.7
2005-10-06 07:49:09 51°13.682 2°48.254 278.7 3 259 9.7
2005-10-06 07:49:14 51°13.681 2°48.248 278.7 3 259 9.8
2005-10-06 07:49:19 51°13.68 2°48.241 278.7 3 258 9.8
2005-10-06 07:49:24 51°13.68 2°48.235 278.7 2.9 258 9.8
2005-10-06 07:49:29 51°13.679 2°48.229 278.5 2.9 257 9.8
2005-10-06 07:49:34 51°13.678 2°48.222 278.4 2.9 257 9.8